createdAt,value
2023-02-20T00:02:07.028Z,100.00
2023-02-20T00:05:12.137Z,100.00
2023-02-20T00:08:14.034Z,100.00
2023-02-20T00:11:20.158Z,100.00
2023-02-20T00:14:23.423Z,100.00
2023-02-20T00:17:28.620Z,100.00
2023-02-20T00:20:36.959Z,100.00
2023-02-20T00:23:40.156Z,100.00
2023-02-20T00:26:52.213Z,100.00
2023-02-20T00:29:56.053Z,100.00
2023-02-20T00:32:59.387Z,100.00
2023-02-20T00:36:04.298Z,100.00
2023-02-20T00:39:10.883Z,100.00
2023-02-20T00:42:14.929Z,100.00
2023-02-20T00:45:18.163Z,100.00
2023-02-20T00:48:20.556Z,100.00
2023-02-20T00:51:25.392Z,100.00
2023-02-20T00:57:43.251Z,100.00
2023-02-20T01:00:47.581Z,100.00
2023-02-20T01:03:50.926Z,100.00
2023-02-20T01:06:53.041Z,100.00
2023-02-20T01:09:57.927Z,100.00
2023-02-20T01:13:00.250Z,100.00
2023-02-20T01:16:03.916Z,100.00
2023-02-20T01:19:07.155Z,100.00
2023-02-20T01:22:11.485Z,100.00
2023-02-20T01:25:15.712Z,100.00
2023-02-20T01:28:19.906Z,100.00
2023-02-20T01:31:25.535Z,100.00
2023-02-20T01:34:27.634Z,100.00
2023-02-20T01:37:32.483Z,100.00
2023-02-20T01:40:34.932Z,100.00
2023-02-20T01:43:37.572Z,100.00
2023-02-20T01:46:48.358Z,100.00
2023-02-20T01:50:03.394Z,100.00
2023-02-20T01:53:12.823Z,100.00
2023-02-20T01:56:17.058Z,100.00
2023-02-20T01:59:23.488Z,100.00
2023-02-20T02:02:30.476Z,100.00
2023-02-20T02:05:34.165Z,100.00
2023-02-20T02:08:41.196Z,100.00
2023-02-20T02:11:43.642Z,100.00
2023-02-20T02:14:48.806Z,100.00
2023-02-20T02:18:28.407Z,100.00
2023-02-20T02:21:51.787Z,100.00
2023-02-20T02:25:24.707Z,100.00
2023-02-20T02:28:44.439Z,100.00
2023-02-20T02:32:13.247Z,100.00
2023-02-20T02:35:36.558Z,100.00
2023-02-20T02:38:55.505Z,100.00
2023-02-20T02:42:03.604Z,100.00
2023-02-20T02:45:17.786Z,100.00
2023-02-20T02:48:26.168Z,100.00
2023-02-20T02:51:33.001Z,100.00
2023-02-20T02:54:37.271Z,100.00
2023-02-20T02:57:40.439Z,100.00
2023-02-20T03:00:57.784Z,100.00
2023-02-20T03:04:03.714Z,100.00
2023-02-20T03:07:15.985Z,100.00
2023-02-20T03:10:35.004Z,100.00
2023-02-20T03:14:04.823Z,100.00
2023-02-20T03:17:29.752Z,100.00
2023-02-20T03:20:32.615Z,100.00
2023-02-20T03:23:40.185Z,100.00
2023-02-20T03:26:45.825Z,100.00
2023-02-20T03:29:50.034Z,100.00
2023-02-20T03:33:27.256Z,100.00
2023-02-20T03:36:55.479Z,100.00
2023-02-20T03:40:22.660Z,100.00
2023-02-20T03:43:48.505Z,100.00
2023-02-20T03:46:54.497Z,100.00
2023-02-20T03:50:00.093Z,100.00
2023-02-20T03:53:03.804Z,100.00
2023-02-20T03:56:14.991Z,100.00
2023-02-20T03:59:52.870Z,100.00
2023-02-20T04:02:58.634Z,100.00
2023-02-20T04:06:05.990Z,100.00
2023-02-20T04:09:18.429Z,100.00
2023-02-20T04:12:36.287Z,100.00
2023-02-20T04:15:41.787Z,100.00
2023-02-20T04:18:44.483Z,100.00
2023-02-20T04:22:01.454Z,100.00
2023-02-20T04:25:19.238Z,100.00
2023-02-20T04:28:24.511Z,100.00
2023-02-20T04:31:32.436Z,100.00
2023-02-20T04:34:35.788Z,100.00
2023-02-20T04:37:39.934Z,100.00
2023-02-20T04:40:43.953Z,100.00
2023-02-20T04:43:47.466Z,100.00
2023-02-20T04:46:53.008Z,100.00
2023-02-20T04:49:56.424Z,100.00
2023-02-20T04:53:01.058Z,100.00
2023-02-20T04:56:03.985Z,100.00
2023-02-20T04:59:08.424Z,100.00
2023-02-20T05:02:11.531Z,100.00
2023-02-20T05:05:19.013Z,100.00
2023-02-20T05:08:23.376Z,100.00
2023-02-20T05:11:26.649Z,100.00
2023-02-20T05:14:30.017Z,100.00
2023-02-20T05:17:34.131Z,100.00
2023-02-20T05:21:00.274Z,100.00
2023-02-20T05:24:09.480Z,100.00
2023-02-20T05:27:15.453Z,100.00
2023-02-20T05:30:19.050Z,100.00
2023-02-20T05:33:22.091Z,100.00
2023-02-20T05:36:25.965Z,100.00
2023-02-20T05:39:28.275Z,100.00
2023-02-20T05:42:31.811Z,100.00
2023-02-20T05:45:39.795Z,100.00
2023-02-20T05:48:42.828Z,100.00
2023-02-20T05:51:45.903Z,100.00
2023-02-20T05:54:48.925Z,100.00
2023-02-20T05:57:51.712Z,100.00
2023-02-20T06:00:57.161Z,100.00
2023-02-20T06:04:02.679Z,100.00
2023-02-20T06:07:09.917Z,100.00
2023-02-20T06:10:12.462Z,100.00
2023-02-20T06:13:17.856Z,100.00
2023-02-20T06:16:28.098Z,100.00
2023-02-20T06:19:33.245Z,100.00
2023-02-20T06:22:38.995Z,100.00
2023-02-20T06:25:41.476Z,100.00
2023-02-20T06:28:50.474Z,100.00
2023-02-20T06:32:00.733Z,100.00
2023-02-20T06:35:04.855Z,100.00
2023-02-20T06:38:11.160Z,100.00
2023-02-20T06:41:14.524Z,100.00
2023-02-20T06:44:16.834Z,100.00
2023-02-20T06:47:19.410Z,100.00
2023-02-20T06:50:22.498Z,100.00
2023-02-20T06:53:25.148Z,100.00
2023-02-20T06:56:32.949Z,100.00
2023-02-20T06:59:41.130Z,100.00
2023-02-20T07:06:29.368Z,100.00
2023-02-20T07:09:34.368Z,100.00
2023-02-20T07:12:41.151Z,100.00
2023-02-20T07:15:43.231Z,100.00
2023-02-20T07:18:45.509Z,100.00
2023-02-20T07:21:49.480Z,100.00
2023-02-20T07:24:53.029Z,100.00
2023-02-20T07:27:57.723Z,100.00
2023-02-20T07:31:03.343Z,100.00
2023-02-20T07:34:05.505Z,100.00
2023-02-20T07:37:14.807Z,100.00
2023-02-20T07:40:20.288Z,100.00
2023-02-20T07:43:24.856Z,100.00
2023-02-20T07:46:27.373Z,100.00
2023-02-20T07:49:29.680Z,100.00
2023-02-20T07:52:34.206Z,100.00
2023-02-20T07:55:37.505Z,100.00
2023-02-20T07:59:00.957Z,100.00
2023-02-20T08:02:06.303Z,100.00
2023-02-20T08:05:11.215Z,100.00
2023-02-20T08:08:16.266Z,100.00
2023-02-20T08:11:22.357Z,100.00
2023-02-20T08:14:28.021Z,100.00
2023-02-20T08:17:45.360Z,100.00
2023-02-20T08:20:55.328Z,100.00
2023-02-20T08:24:01.687Z,100.00
2023-02-20T08:27:10.031Z,100.00
2023-02-20T08:30:17.556Z,100.00
2023-02-20T08:33:22.843Z,100.00
2023-02-20T08:36:30.578Z,100.00
2023-02-20T08:39:33.523Z,100.00
2023-02-20T08:42:37.360Z,100.00
2023-02-20T08:45:41.664Z,100.00
2023-02-20T08:48:48.216Z,100.00
2023-02-20T08:51:55.677Z,100.00
2023-02-20T08:54:58.280Z,100.00
2023-02-20T08:58:01.630Z,100.00
2023-02-20T09:01:05.498Z,100.00
2023-02-20T09:04:10.050Z,100.00
2023-02-20T09:07:13.692Z,100.00
2023-02-20T09:10:19.091Z,100.00
2023-02-20T09:13:22.728Z,100.00
2023-02-20T09:16:32.881Z,100.00
2023-02-20T09:19:35.954Z,100.00
2023-02-20T09:22:38.455Z,100.00
2023-02-20T09:25:42.249Z,100.00
2023-02-20T09:28:44.900Z,100.00
2023-02-20T09:31:47.619Z,100.00
2023-02-20T09:34:53.146Z,100.00
2023-02-20T09:37:58.525Z,100.00
2023-02-20T09:41:01.540Z,97.91
2023-02-20T09:44:12.695Z,97.39
2023-02-20T09:47:42.876Z,98.87
2023-02-20T09:51:05.068Z,100.00
2023-02-20T09:54:10.274Z,92.34
2023-02-20T09:57:18.734Z,91.18
2023-02-20T10:00:32.000Z,92.60
2023-02-20T10:03:50.195Z,94.14
2023-02-20T10:06:59.821Z,93.54
2023-02-20T10:10:24.534Z,92.62
2023-02-20T10:13:56.053Z,92.24
2023-02-20T10:17:14.911Z,91.13
2023-02-20T10:20:46.308Z,91.02
2023-02-20T10:24:05.904Z,90.03
2023-02-20T10:27:30.156Z,88.36
2023-02-20T10:30:41.159Z,87.46
2023-02-20T10:33:48.712Z,87.60
2023-02-20T10:36:56.668Z,92.16
2023-02-20T10:40:19.580Z,94.06
2023-02-20T10:43:32.668Z,94.19
2023-02-20T10:47:16.384Z,93.00
2023-02-20T10:50:39.205Z,91.74
2023-02-20T10:54:13.573Z,92.91
2023-02-20T10:57:25.537Z,93.23
2023-02-20T11:00:40.493Z,93.36
2023-02-20T11:04:19.730Z,93.82
2023-02-20T11:07:26.535Z,91.51
2023-02-20T11:10:34.821Z,87.77
2023-02-20T11:13:38.427Z,85.69
2023-02-20T11:16:59.285Z,83.72
2023-02-20T11:20:05.024Z,83.59
2023-02-20T11:23:09.872Z,83.61
2023-02-20T11:26:21.617Z,84.28
2023-02-20T11:29:34.694Z,82.67
2023-02-20T11:32:44.234Z,81.63
2023-02-20T11:36:11.665Z,80.51
2023-02-20T11:39:28.373Z,79.86
2023-02-20T11:42:35.931Z,80.99
2023-02-20T11:45:39.854Z,81.28
2023-02-20T11:49:12.544Z,80.33
2023-02-20T11:52:20.571Z,78.37
2023-02-20T11:55:27.689Z,77.79
2023-02-20T11:58:32.168Z,76.82
2023-02-20T12:01:37.686Z,76.63
2023-02-20T12:04:41.240Z,75.53
2023-02-20T12:07:58.801Z,73.24
2023-02-20T12:11:08.573Z,70.50
2023-02-20T12:14:15.600Z,72.20
2023-02-20T12:17:30.881Z,70.29
2023-02-20T12:20:36.821Z,71.60
2023-02-20T12:24:05.918Z,73.52
2023-02-20T12:27:29.798Z,74.90
2023-02-20T12:34:31.291Z,78.90
2023-02-20T12:37:55.699Z,80.74
2023-02-20T12:41:16.031Z,82.25
2023-02-20T12:44:53.762Z,83.57
2023-02-20T12:48:14.880Z,85.19
2023-02-20T12:51:51.659Z,85.44
2023-02-20T12:55:20.392Z,85.39
2023-02-20T12:58:47.324Z,85.68
2023-02-20T13:01:51.698Z,84.00
2023-02-20T13:05:00.922Z,82.24
2023-02-20T13:08:11.718Z,82.93
2023-02-20T13:11:23.929Z,83.24
2023-02-20T13:15:02.136Z,83.67
2023-02-20T13:18:30.851Z,84.38
2023-02-20T13:21:33.859Z,84.10
2023-02-20T13:24:41.160Z,84.04
2023-02-20T13:27:45.114Z,84.39
2023-02-20T13:31:26.703Z,85.10
2023-02-20T13:34:35.592Z,85.20
2023-02-20T13:37:40.087Z,85.26
2023-02-20T13:41:07.414Z,85.55
2023-02-20T13:44:39.689Z,85.55
2023-02-20T13:47:43.385Z,85.94
2023-02-20T13:50:46.862Z,86.63
2023-02-20T13:54:23.331Z,87.55
2023-02-20T13:57:33.249Z,88.26
2023-02-20T14:00:46.446Z,89.18
2023-02-20T14:04:06.964Z,90.51
2023-02-20T14:07:10.481Z,92.29
2023-02-20T14:10:24.838Z,93.16
2023-02-20T14:13:40.052Z,94.12
2023-02-20T14:16:45.754Z,98.13
2023-02-20T14:20:08.488Z,100.00
2023-02-20T14:23:34.824Z,100.00
2023-02-20T14:26:40.149Z,100.00
2023-02-20T14:29:45.124Z,100.00
2023-02-20T14:32:52.969Z,100.00
2023-02-20T14:36:19.617Z,100.00
2023-02-20T14:40:11.999Z,100.00
2023-02-20T14:43:28.161Z,100.00
2023-02-20T14:46:37.554Z,100.00
2023-02-20T14:49:47.909Z,100.00
2023-02-20T14:53:01.504Z,100.00
2023-02-20T14:56:18.251Z,100.00
2023-02-20T14:59:32.944Z,100.00
2023-02-20T15:02:36.525Z,100.00
2023-02-20T15:05:44.322Z,100.00
2023-02-20T15:08:47.149Z,100.00
2023-02-20T15:11:58.951Z,100.00
2023-02-20T15:15:36.001Z,100.00
2023-02-20T15:18:50.089Z,100.00
2023-02-20T15:22:10.524Z,100.00
2023-02-20T15:25:33.426Z,100.00
2023-02-20T15:28:43.869Z,100.00
2023-02-20T15:32:20.154Z,100.00
2023-02-20T15:42:36.008Z,100.00
2023-02-20T15:45:55.478Z,100.00
2023-02-20T15:49:19.332Z,100.00
2023-02-20T15:52:43.593Z,100.00
2023-02-20T15:55:47.812Z,100.00
2023-02-20T15:58:54.569Z,100.00
2023-02-20T16:02:19.601Z,100.00
2023-02-20T16:05:31.776Z,100.00
2023-02-20T16:16:36.898Z,100.00
2023-02-20T16:20:08.884Z,100.00
2023-02-20T16:23:25.432Z,100.00
2023-02-20T16:26:44.532Z,100.00
2023-02-20T16:29:59.894Z,100.00
2023-02-20T16:33:25.594Z,100.00
2023-02-20T16:36:38.392Z,100.00
2023-02-20T16:39:53.106Z,100.00
2023-02-20T16:46:48.253Z,100.00
2023-02-20T16:50:02.882Z,100.00
2023-02-20T16:53:09.853Z,100.00
2023-02-20T16:56:23.310Z,100.00
2023-02-20T16:59:40.710Z,100.00
2023-02-20T17:02:57.508Z,100.00
2023-02-20T17:06:30.699Z,100.00
2023-02-20T17:09:46.890Z,100.00
2023-02-20T17:13:02.411Z,100.00
2023-02-20T17:16:19.341Z,100.00
2023-02-20T17:19:34.240Z,100.00
2023-02-20T17:23:04.130Z,100.00
2023-02-20T17:26:43.820Z,100.00
2023-02-20T17:29:54.910Z,100.00
2023-02-20T17:33:02.783Z,100.00
2023-02-20T17:36:08.260Z,100.00
2023-02-20T17:39:21.718Z,100.00
2023-02-20T17:42:31.138Z,100.00
2023-02-20T17:46:21.434Z,100.00
2023-02-20T17:49:27.400Z,100.00
2023-02-20T17:55:52.870Z,100.00
2023-02-20T17:58:57.079Z,100.00
2023-02-20T18:02:01.532Z,100.00
2023-02-20T18:05:06.252Z,100.00
2023-02-20T18:08:12.298Z,100.00
2023-02-20T18:11:15.445Z,100.00
2023-02-20T18:14:20.579Z,100.00
2023-02-20T18:17:25.574Z,100.00
2023-02-20T18:20:29.799Z,100.00
2023-02-20T18:23:32.126Z,100.00
2023-02-20T18:26:41.100Z,100.00
2023-02-20T18:29:45.382Z,100.00
2023-02-20T18:32:51.389Z,100.00
2023-02-20T18:36:06.186Z,100.00
2023-02-20T18:39:13.663Z,100.00
2023-02-20T18:42:17.504Z,100.00
2023-02-20T18:45:24.949Z,100.00
2023-02-20T18:48:29.368Z,100.00
2023-02-20T18:51:37.790Z,100.00
2023-02-20T18:55:08.151Z,100.00
2023-02-20T18:58:12.682Z,100.00
2023-02-20T19:01:22.067Z,100.00
2023-02-20T19:04:25.685Z,100.00
2023-02-20T19:07:29.007Z,100.00
2023-02-20T19:11:17.102Z,100.00
2023-02-20T19:14:23.590Z,100.00
2023-02-20T19:17:29.455Z,100.00
2023-02-20T19:20:52.180Z,100.00
2023-02-20T19:23:54.992Z,100.00
2023-02-20T19:26:59.724Z,100.00
2023-02-20T19:30:03.069Z,100.00
2023-02-20T19:33:09.210Z,100.00
2023-02-20T19:36:15.308Z,100.00
2023-02-20T19:39:21.731Z,100.00
2023-02-20T19:42:28.364Z,100.00
2023-02-20T19:45:33.273Z,100.00
2023-02-20T19:48:40.232Z,100.00
2023-02-20T19:51:51.747Z,100.00
2023-02-20T19:54:54.379Z,100.00
2023-02-20T19:58:00.085Z,100.00
2023-02-20T20:01:05.922Z,100.00
2023-02-20T20:04:09.943Z,100.00
2023-02-20T20:07:28.323Z,100.00
2023-02-20T20:10:32.786Z,100.00
2023-02-20T20:13:35.512Z,100.00
2023-02-20T20:16:43.477Z,100.00
2023-02-20T20:19:57.972Z,100.00
2023-02-20T20:23:06.064Z,100.00
2023-02-20T20:26:10.550Z,100.00
2023-02-20T20:29:16.712Z,100.00
2023-02-20T20:32:21.462Z,100.00
2023-02-20T20:35:28.952Z,100.00
2023-02-20T20:38:31.273Z,100.00
2023-02-20T20:41:44.859Z,100.00
2023-02-20T20:44:50.960Z,100.00
2023-02-20T20:47:53.829Z,100.00
2023-02-20T20:50:59.560Z,100.00
2023-02-20T20:54:05.223Z,100.00
2023-02-20T20:57:09.899Z,100.00
2023-02-20T21:00:28.933Z,100.00
2023-02-20T21:03:33.419Z,100.00
2023-02-20T21:06:36.067Z,100.00
2023-02-20T21:09:42.792Z,100.00
2023-02-20T21:12:46.848Z,100.00
2023-02-20T21:15:49.462Z,100.00
2023-02-20T21:18:52.779Z,100.00
2023-02-20T21:21:57.575Z,100.00
2023-02-20T21:25:01.503Z,100.00
2023-02-20T21:28:04.320Z,100.00
2023-02-20T21:31:06.657Z,100.00
2023-02-20T21:34:10.073Z,100.00
2023-02-20T21:37:14.925Z,100.00
2023-02-20T21:40:18.621Z,100.00
2023-02-20T21:43:41.891Z,100.00
2023-02-20T21:46:45.302Z,100.00
2023-02-20T21:49:48.073Z,100.00
2023-02-20T21:52:51.288Z,100.00
2023-02-20T21:55:53.796Z,100.00
2023-02-20T21:59:03.448Z,100.00
2023-02-20T22:02:21.160Z,100.00
2023-02-20T22:05:24.585Z,100.00
2023-02-20T22:08:45.405Z,100.00
2023-02-20T22:12:08.051Z,100.00
2023-02-20T22:15:32.577Z,100.00
2023-02-20T22:18:54.827Z,100.00
2023-02-20T22:22:20.554Z,100.00
2023-02-20T22:25:42.300Z,100.00
2023-02-20T22:29:03.251Z,100.00
2023-02-20T22:32:24.708Z,100.00
2023-02-20T22:35:46.400Z,100.00
2023-02-20T22:39:10.352Z,100.00
2023-02-20T22:42:35.502Z,100.00
2023-02-20T22:45:56.643Z,100.00
2023-02-20T22:49:18.843Z,100.00
2023-02-20T22:52:40.793Z,100.00
2023-02-20T22:56:01.645Z,100.00
2023-02-20T22:59:23.430Z,100.00
2023-02-20T23:02:47.682Z,100.00
2023-02-20T23:06:18.054Z,100.00
2023-02-20T23:09:40.747Z,100.00
2023-02-20T23:13:03.551Z,100.00
2023-02-20T23:16:24.869Z,100.00
2023-02-20T23:19:51.882Z,100.00
2023-02-20T23:23:14.148Z,100.00
2023-02-20T23:26:36.078Z,100.00
2023-02-20T23:29:58.168Z,100.00
2023-02-20T23:33:20.062Z,100.00
2023-02-20T23:36:43.634Z,100.00
2023-02-20T23:40:05.838Z,100.00
2023-02-20T23:43:27.707Z,100.00
2023-02-20T23:46:49.247Z,100.00
2023-02-20T23:50:13.660Z,100.00
2023-02-20T23:53:35.622Z,100.00
2023-02-20T23:56:56.636Z,100.00
